Wetterdaten: September 2013
Datum Temp Feuchte Luftdruck Regen Wind Richtung Sonnenschein UV Solar Windben
01.09.2013 12,7 C 77 % 1024,4 hPa 0,0 l/m 2,3 km/h NW 3,58 h 1,8 UV-I 232 W/m 16,9 km/h
02.09.2013 14,7 C 90 % 1022,1 hPa 0,8 l/m 5,1 km/h W-NW 0,00 h 0,8 UV-I 54 W/m 21,3 km/h
03.09.2013 17,2 C 90 % 1026,3 hPa 0,0 l/m 0,8 km/h W-SW 1,25 h 1,8 UV-I 169 W/m 4,8 km/h
04.09.2013 17,4 C 85 % 1021,8 hPa 0,2 l/m 0,8 km/h SO 10,17 h 2,7 UV-I 385 W/m 2,8 km/h
05.09.2013 20,9 C 69 % 1014,1 hPa 0,0 l/m 3,7 km/h SO 10,50 h 2,8 UV-I 385 W/m 10,5 km/h
06.09.2013 22,6 C 65 % 1009,6 hPa 0,0 l/m 10,2 km/h S-SO 10,17 h 2,7 UV-I 380 W/m 17,7 km/h
07.09.2013 17,0 C 93 % 1016,7 hPa 1,0 l/m 0,0 km/h NW 2,00 h 1,3 UV-I 154 W/m 0,0 km/h
08.09.2013 13,9 C 95 % 1017,3 hPa 0,4 l/m 0,6 km/h N-NW 0,08 h 1,1 UV-I 78 W/m 3,2 km/h
09.09.2013 10,1 C 93 % 1015,9 hPa 5,6 l/m 0,1 km/h S-SW 2,75 h 1,7 UV-I 209 W/m 0,8 km/h
10.09.2013 10,3 C 95 % 1010,4 hPa 12,2 l/m 4,3 km/h S 0,50 h 1,0 UV-I 111 W/m 14,5 km/h
11.09.2013 10,7 C 97 % 1009,9 hPa 21,6 l/m 3,0 km/h NW 0,58 h 0,9 UV-I 72 W/m 15,7 km/h
12.09.2013 11,3 C 96 % 1015,7 hPa 6,4 l/m 0,8 km/h NW 1,08 h 1,1 UV-I 106 W/m 2,8 km/h
13.09.2013 12,1 C 94 % 1018,8 hPa 0,2 l/m 0,2 km/h NW 1,92 h 1,6 UV-I 181 W/m 3,6 km/h
14.09.2013 14,1 C 94 % 1011,5 hPa 7,0 l/m 5,1 km/h S 0,33 h 1,5 UV-I 128 W/m 18,5 km/h
15.09.2013 12,7 C 81 % 1008,4 hPa 0,2 l/m 2,1 km/h NW 2,83 h 1,7 UV-I 225 W/m 10,8 km/h
16.09.2013 8,4 C 91 % 1000,0 hPa 10,0 l/m 3,6 km/h S 2,92 h 1,3 UV-I 185 W/m 9,6 km/h
17.09.2013 8,8 C 84 % 1001,6 hPa 2,0 l/m 3,0 km/h S 3,00 h 1,2 UV-I 174 W/m 7,7 km/h
18.09.2013 10,1 C 92 % 999,7 hPa 7,6 l/m 2,4 km/h NW 1,50 h 1,3 UV-I 156 W/m 12,5 km/h
19.09.2013 10,1 C 91 % 1010,7 hPa 1,8 l/m 3,3 km/h W-NW 1,50 h 1,4 UV-I 164 W/m 12,8 km/h
20.09.2013 12,4 C 94 % 1015,5 hPa 6,0 l/m 1,2 km/h S 0,08 h 1,3 UV-I 99 W/m 13,3 km/h
21.09.2013 11,8 C 91 % 1025,7 hPa 0,0 l/m 0,1 km/h W-NW 1,00 h 1,1 UV-I 128 W/m 2,0 km/h
22.09.2013 13,9 C 93 % 1026,0 hPa 0,0 l/m 0,2 km/h W-NW 0,25 h 1,1 UV-I 93 W/m 2,4 km/h
23.09.2013 13,9 C 94 % 1022,9 hPa 0,2 l/m 0,7 km/h NW 0,00 h 0,8 UV-I 70 W/m 5,7 km/h
24.09.2013 13,3 C 91 % 1015,9 hPa 0,0 l/m 0,1 km/h S-SW 0,00 h 1,0 UV-I 93 W/m 1,2 km/h
25.09.2013 14,7 C 89 % 1010,0 hPa 0,2 l/m 0,1 km/h SO 4,58 h 1,6 UV-I 218 W/m 2,4 km/h
26.09.2013 11,2 C 90 % 1015,4 hPa 0,0 l/m 0,4 km/h NW 1,08 h 1,4 UV-I 127 W/m 4,4 km/h
27.09.2013 7,2 C 86 % 1018,1 hPa 0,2 l/m 0,9 km/h SO 8,00 h 1,9 UV-I 316 W/m 5,3 km/h
28.09.2013 10,1 C 77 % 1014,8 hPa 0,0 l/m 4,8 km/h SO 9,00 h 2,0 UV-I 324 W/m 12,9 km/h
29.09.2013 9,9 C 74 % 1012,8 hPa 0,0 l/m 5,1 km/h O-SO 9,00 h 1,8 UV-I 315 W/m 20,1 km/h
30.09.2013 8,9 C 74 % 1012,3 hPa 0,0 l/m 3,2 km/h O-SO 8,83 h 1,7 UV-I 315 W/m 12,1 km/h
Min-Datum 27.09.13 06.09.13 18.09.13 19 Tage 01.09.13 - - - - 01.09.13
Min-Zeit 23:50 16:35 05:40 - 00:00 - - - - 00:00
Minimum 3,8 C 44 % 992,7 hPa - 0,0 km/h - - - - 0,0 km/h
Max-Datum 06.09.13 03.09.13 22.09.13 11.09.13 06.09.13 - 05.09.13 05.09.13 15.09.13 29.09.13
Max-Zeit 15:45 11:40 00:25 02:05 13:10 - 18:30 12:55 14:35 12:30
Maximum 29,1 C 100 % 1027,0 hPa 21,6 l/m 25,9 km/h
S-SO
- 10,42 h 4,9 UV-I 898 W/m 46,7 km/h
O-SO
Durchschnitt 12,7 C 87 % 1014,8 hPa #83,6 l/m 2,3 km/h S #98:30 h 1,5 UV-I 188 W/m 8,9 km/h

Durchschnitt Minimum Temp.9,4 C
Durchschnitt Maximum Temp.16,9 C